Talkeetna, AK

12:05 PM AKDT on August 29, 2014 (GMT -0800)
Talkeetna | Change Station
CLOSE
Current Station
Airport
Location: Talkeetna,
Elevation: 358 ft
Nearby Weather Stations
Active Advisory: Special Statement Active Notice: Record Report

Elev 358 ft 62.32 °N, 150.09 °W | Updated 12 minutes ago

Mostly Cloudy
Mostly Cloudy
51 °F
Feels Like 51 °F
N
5
Wind Variable Wind from SW

Today
High -- | Low -- °F
--% Chance of Precip.
Yesterday
High -- | Low -- °F
Precip. -- in
6:38 AM 9:20 PM
Waxing Crescent, 16% visible
Pressure 29.59 in
Visibility 10.0 miles
Clouds Scattered Clouds 600 ft
Mostly Cloudy 1500 ft
Dew Point 46 °F
Humidity 83%
Rainfall 0.19 in
Snow Depth Not available.
UV 2 out of 12
Pollen Not available.
Air Quality Not available.
Flu Activity Not available.
METAR PATK 291953Z 22004KT 10SM SCT006 BKN015 11/08 A2958 RMK AO2 SLP018 T01060078

More Conditions Fewer Conditions

Pressure 29.59 in
Visibility 10.0 miles
Clouds Scattered Clouds 600 ft
Mostly Cloudy 1500 ft
Dew Point 46 °F
Humidity 83%
Rainfall 0.19 in
Snow Depth Not available.
UV 2 out of 12
Pollen Not available.
Air Quality Not available.
Flu Activity Not available.
METAR PATK 291953Z 22004KT 10SM SCT006 BKN015 11/08 A2958 RMK AO2 SLP018 T01060078

More Conditions Fewer Conditions

10-Day Weather Forecast

Almanac

Astronomy

Aug. 29, 2014 Rise Set
Actual Time 6:38 AM AKDT 9:20 PM AKDT
Civil Twilight 5:46 AM AKDT 10:11 PM AKDT
Nautical Twilight 4:34 AM AKDT 11:21 PM AKDT
Astronomical Twilight 2:32 AM AKDT 1:34 AM AKDT
Moon 12:05 PM AKDT 9:49 PM AKDT
Length of Visible Light 16h 24m
Length of Day
14h 41m
Tomorrow will be 6m 6s shorter.
Waxing Crescent, 16% of the Moon is Illuminated
Today
Waxing Crescent
Sep 2
First Quarter
Sep 8
Full
Sep 15
Last Quarter
Sep 24
New

Today's Extremes

State Highs State Lows

Community

WunderPhotos

Upload Photos

1,748,329 photos uploaded!

WunderBlogs® & News

By Dr. Jeff Masters
Director of Meteorology, Weather Underground
By Kari Strenfel
Meteorologist, Weather Underground
By Christopher C. Burt
Weather Historian, Weather Underground
August 29, 2014
August 29, 2014
August 29, 2014

Nearby

Snow Depth

Station Depth Elevation
Susitna Valley High 109 in 375 ft
Point Mackenzie 1 in 200 ft
Indian Pass 1 in 2300 ft
Moraine 0 in 2100 ft
Turnagain Pass 2 in 1880 ft

Earthquake Activity

City Distance Mag. Time & Date
No recent earthquake activity has been reported nearby.
Minimum magnitude displayed is 2.5.

Coastal Water Temperatures

Place Temperature
No Stations Reporting

Nearby Weather Stations